createdAt,value
2022-10-12T03:55:15.331Z,101748.69
2022-10-12T03:58:38.627Z,101748.33
2022-10-12T04:02:01.889Z,101748.77
2022-10-12T04:05:25.635Z,101749.94
2022-10-12T04:08:50.991Z,101746.86
2022-10-12T04:12:15.172Z,101753.81
2022-10-12T04:15:38.622Z,101754.23
2022-10-12T04:19:02.872Z,101751.94
2022-10-12T04:22:26.574Z,101753.55
2022-10-12T04:25:49.937Z,101755.07
2022-10-12T04:29:14.333Z,101754.50
2022-10-12T04:32:37.696Z,101760.92
2022-10-12T04:36:01.271Z,101759.25
2022-10-12T04:39:25.059Z,101762.91
2022-10-12T04:42:48.595Z,101762.21
2022-10-12T04:46:11.881Z,101761.16
2022-10-12T04:49:36.049Z,101764.60
2022-10-12T04:53:00.163Z,101762.11
2022-10-12T04:56:23.523Z,101762.05
2022-10-12T04:59:47.074Z,101762.08
2022-10-12T05:03:10.300Z,101765.30
2022-10-12T05:06:33.484Z,101764.27
2022-10-12T05:09:56.835Z,101767.20
2022-10-12T05:13:20.090Z,101767.20
2022-10-12T05:16:43.419Z,101771.77
2022-10-12T05:20:10.209Z,101774.10
2022-10-12T05:23:33.788Z,101773.78
2022-10-12T05:26:57.132Z,101770.09
2022-10-12T05:30:20.357Z,101774.46
2022-10-12T05:33:43.629Z,101780.93
2022-10-12T05:37:06.868Z,101775.33
2022-10-12T05:40:29.995Z,101775.86
2022-10-12T05:43:53.411Z,101775.30
2022-10-12T05:47:16.642Z,101776.64
2022-10-12T05:50:39.809Z,101778.31
2022-10-12T05:54:03.246Z,101778.18
2022-10-12T05:57:26.855Z,101783.02
2022-10-12T06:00:50.559Z,101789.00
2022-10-12T06:04:13.910Z,101794.82
2022-10-12T06:07:37.300Z,101793.59
2022-10-12T06:11:00.878Z,101793.19
2022-10-12T06:14:24.226Z,101789.98
2022-10-12T06:17:47.580Z,101790.66
2022-10-12T06:24:54.384Z,101789.98
2022-10-12T06:28:19.472Z,101794.25
2022-10-12T06:31:44.694Z,101790.98
2022-10-12T06:35:11.175Z,101795.66
2022-10-12T06:38:34.811Z,101796.90
2022-10-12T06:41:58.042Z,101797.45
2022-10-12T06:45:24.794Z,101792.86
2022-10-12T06:48:48.121Z,101789.80
2022-10-12T06:52:11.329Z,101787.58
2022-10-12T06:55:34.699Z,101786.02
2022-10-12T06:58:58.228Z,101787.49
2022-10-12T07:02:21.703Z,101787.39
2022-10-12T07:05:44.923Z,101787.61
2022-10-12T07:09:08.350Z,101791.48
2022-10-12T07:12:31.620Z,101787.48
2022-10-12T07:15:54.857Z,101788.38
2022-10-12T07:19:18.132Z,101791.31
2022-10-12T07:22:41.358Z,101796.23
2022-10-12T07:26:04.693Z,101796.45
2022-10-12T07:29:31.118Z,101796.54
2022-10-12T07:32:55.252Z,101800.23
2022-10-12T07:36:21.745Z,101802.52
2022-10-12T07:39:45.465Z,101804.15
2022-10-12T07:43:16.623Z,101803.38
2022-10-12T07:46:40.727Z,101797.67
2022-10-12T07:50:04.914Z,101799.11
2022-10-12T07:53:28.140Z,101799.95
2022-10-12T07:56:51.452Z,101799.79
2022-10-12T08:00:15.786Z,101802.41
2022-10-12T08:03:39.007Z,101801.84
2022-10-12T08:07:02.247Z,101803.80
2022-10-12T08:10:25.513Z,101806.42
2022-10-12T08:13:49.118Z,101804.06
2022-10-12T08:17:12.373Z,101800.25
2022-10-12T08:20:38.736Z,101799.63
2022-10-12T08:24:01.920Z,101793.78
2022-10-12T08:27:25.648Z,101792.33
2022-10-12T08:30:49.370Z,101792.95
2022-10-12T08:34:13.678Z,101793.34
2022-10-12T08:37:37.047Z,101793.71
2022-10-12T08:41:10.470Z,101795.16
2022-10-12T08:44:51.965Z,101795.73
2022-10-12T08:48:18.276Z,101793.15
2022-10-12T08:51:48.982Z,101793.97
2022-10-12T08:55:23.692Z,101799.35
2022-10-12T08:58:48.922Z,101798.95
2022-10-12T09:02:30.930Z,101798.31
2022-10-12T09:06:03.787Z,101794.34
2022-10-12T09:09:43.030Z,101795.66
2022-10-12T09:13:18.476Z,101794.60
2022-10-12T09:16:45.409Z,101792.48
2022-10-12T09:20:18.329Z,101789.98
2022-10-12T09:23:43.547Z,101787.92
2022-10-12T09:27:15.056Z,101782.48
2022-10-12T09:30:48.364Z,101780.52
2022-10-12T09:34:16.716Z,101777.37
2022-10-12T09:37:44.120Z,101781.08
2022-10-12T09:41:16.647Z,101778.95
2022-10-12T09:44:43.222Z,101781.48
2022-10-12T09:48:16.331Z,101777.59
2022-10-12T09:51:40.677Z,101779.77
2022-10-12T09:55:07.599Z,101781.15
2022-10-12T09:58:39.646Z,101782.73
2022-10-12T10:02:15.051Z,101781.67
2022-10-12T10:05:39.026Z,101785.33
2022-10-12T10:09:02.945Z,101779.73
2022-10-12T10:12:27.347Z,101769.45
2022-10-12T10:15:52.835Z,101770.45
2022-10-12T10:19:19.699Z,101767.13
2022-10-12T10:22:48.514Z,101761.73
2022-10-12T10:26:14.755Z,101761.52
2022-10-12T10:29:39.943Z,101758.56
2022-10-12T10:33:16.825Z,101754.45
2022-10-12T10:36:45.242Z,101755.23
2022-10-12T10:40:19.691Z,101754.45
2022-10-12T10:43:47.035Z,101745.92
2022-10-12T10:47:12.884Z,101745.98
2022-10-12T10:50:39.548Z,101742.09
2022-10-12T10:54:17.180Z,101740.40
2022-10-12T10:57:43.743Z,101740.34
2022-10-12T11:01:18.791Z,101736.23
2022-10-12T11:04:46.265Z,101732.95
2022-10-12T11:08:16.938Z,101728.26
2022-10-12T11:11:42.697Z,101726.73
2022-10-12T11:15:15.461Z,101725.17
2022-10-12T11:18:44.216Z,101726.09
2022-10-12T11:22:14.420Z,101725.80
2022-10-12T11:25:49.804Z,101719.46
2022-10-12T11:29:17.084Z,101715.98
2022-10-12T11:32:43.176Z,101712.24
2022-10-12T11:36:10.966Z,101707.80
2022-10-12T11:39:38.061Z,101709.42
2022-10-12T11:43:07.548Z,101704.99
2022-10-12T11:46:33.604Z,101702.70
2022-10-12T11:50:00.221Z,101696.90
2022-10-12T11:53:31.607Z,101694.92
2022-10-12T11:56:58.764Z,101693.82
2022-10-12T12:00:25.941Z,101688.83
2022-10-12T12:04:39.765Z,101688.26
2022-10-12T12:07:56.493Z,101683.66
2022-10-12T12:11:22.321Z,101678.63
2022-10-12T12:15:01.747Z,101677.64
2022-10-12T12:18:25.949Z,101677.92
2022-10-12T12:22:22.737Z,101681.58
2022-10-12T12:25:46.224Z,101678.79
2022-10-12T12:29:15.812Z,101675.84
2022-10-12T12:32:46.835Z,101675.48
2022-10-12T12:36:12.972Z,101671.72
2022-10-12T12:39:37.833Z,101673.83
2022-10-12T12:43:34.943Z,101676.05
2022-10-12T12:47:44.155Z,101673.50
2022-10-12T12:51:03.285Z,101672.77
2022-10-12T12:54:28.303Z,101675.55
2022-10-12T12:58:21.295Z,101671.45
2022-10-12T13:02:12.336Z,101671.67
2022-10-12T13:06:10.966Z,101664.30
2022-10-12T13:10:11.959Z,101660.07
2022-10-12T13:13:50.096Z,101658.81
2022-10-12T13:17:34.427Z,101656.84
2022-10-12T13:20:58.192Z,101650.42
2022-10-12T13:24:24.786Z,101650.94
2022-10-12T13:27:50.206Z,101650.27
2022-10-12T13:31:19.898Z,101648.91
2022-10-12T13:34:43.364Z,101647.08
2022-10-12T13:38:19.974Z,101649.62
2022-10-12T13:41:45.306Z,101646.31
2022-10-12T13:45:15.717Z,101645.84
2022-10-12T13:48:59.634Z,101646.63
2022-10-12T13:52:31.658Z,101644.96
2022-10-12T13:56:01.039Z,101639.67
2022-10-12T13:59:26.759Z,101636.03
2022-10-12T14:02:56.039Z,101634.80
2022-10-12T14:06:30.336Z,101637.46
2022-10-12T14:09:57.043Z,101637.90
2022-10-12T14:13:26.723Z,101638.90
2022-10-12T14:16:50.788Z,101636.34
2022-10-12T14:20:26.478Z,101637.21
2022-10-12T14:23:52.812Z,101632.39
2022-10-12T14:27:23.777Z,101628.23
2022-10-12T14:30:52.084Z,101628.84
2022-10-12T14:34:50.778Z,101620.86
2022-10-12T14:38:41.756Z,101619.23
2022-10-12T14:42:18.029Z,101619.15
2022-10-12T14:45:41.292Z,101618.89
2022-10-12T14:49:04.775Z,101615.07
2022-10-12T14:52:35.615Z,101614.76
2022-10-12T14:55:58.916Z,101607.16
2022-10-12T14:59:22.294Z,101601.54
2022-10-12T15:02:46.278Z,101598.40
2022-10-12T15:06:12.738Z,101599.83
2022-10-12T15:09:35.897Z,101595.77
2022-10-12T15:12:59.060Z,101592.55
2022-10-12T15:16:24.826Z,101591.79
2022-10-12T15:19:49.493Z,101589.58
2022-10-12T15:23:13.742Z,101588.74
2022-10-12T15:26:42.092Z,101588.20
2022-10-12T15:30:07.983Z,101585.20
2022-10-12T15:33:31.896Z,101589.74
2022-10-12T15:36:55.373Z,101590.20
2022-10-12T15:40:20.320Z,101588.23
2022-10-12T15:43:43.631Z,101589.91
2022-10-12T15:47:08.623Z,101586.64
2022-10-12T15:50:37.669Z,101586.37
2022-10-12T15:54:01.296Z,101587.48
2022-10-12T15:57:24.508Z,101582.61
2022-10-12T16:00:48.086Z,101579.75
2022-10-12T16:04:14.394Z,101581.34
2022-10-12T16:07:37.596Z,101573.52
2022-10-12T16:11:03.158Z,101576.98
2022-10-12T16:14:26.608Z,101577.95
2022-10-12T16:17:50.142Z,101578.06
2022-10-12T16:21:13.396Z,101582.36
2022-10-12T16:24:37.192Z,101587.72
2022-10-12T16:28:01.308Z,101585.12
2022-10-12T16:31:24.828Z,101588.91
2022-10-12T16:34:48.267Z,101588.33
2022-10-12T16:38:13.851Z,101594.32
2022-10-12T16:41:37.041Z,101598.58
2022-10-12T16:45:01.235Z,101602.91
2022-10-12T16:48:24.565Z,101603.27
2022-10-12T16:51:48.561Z,101603.29
2022-10-12T16:55:11.902Z,101604.36
2022-10-12T16:58:35.378Z,101602.46
2022-10-12T17:01:58.665Z,101603.27
2022-10-12T17:05:21.937Z,101607.17
2022-10-12T17:08:45.429Z,101607.38
2022-10-12T17:12:09.379Z,101603.36
2022-10-12T17:15:32.548Z,101601.11
2022-10-12T17:18:59.610Z,101599.23
2022-10-12T17:22:23.374Z,101600.34
2022-10-12T17:25:47.218Z,101602.68
2022-10-12T17:29:12.612Z,101605.71
2022-10-12T17:32:37.233Z,101609.98
2022-10-12T17:36:04.384Z,101609.84
2022-10-12T17:39:29.960Z,101613.21
2022-10-12T17:42:53.162Z,101612.16
2022-10-12T17:46:21.570Z,101608.98
2022-10-12T17:49:45.888Z,101609.14
2022-10-12T17:53:09.426Z,101609.16
2022-10-12T17:56:33.520Z,101607.29
2022-10-12T17:59:56.784Z,101605.30
2022-10-12T18:03:24.839Z,101601.20
2022-10-12T18:06:49.020Z,101601.48
2022-10-12T18:10:12.341Z,101603.38
2022-10-12T18:13:37.413Z,101608.64
2022-10-12T18:17:00.941Z,101604.98
2022-10-12T18:20:24.380Z,101601.81
2022-10-12T18:23:48.233Z,101596.38
2022-10-12T18:27:11.997Z,101601.98
2022-10-12T18:30:35.826Z,101598.83
2022-10-12T18:33:59.846Z,101600.88
2022-10-12T18:37:23.108Z,101602.34
2022-10-12T18:40:47.179Z,101602.80
2022-10-12T18:44:11.691Z,101604.91
2022-10-12T18:47:37.011Z,101599.30
2022-10-12T18:51:04.877Z,101598.56
2022-10-12T18:54:28.249Z,101597.11
2022-10-12T18:57:51.676Z,101596.86
2022-10-12T19:01:17.374Z,101595.23
2022-10-12T19:04:41.193Z,101590.44
2022-10-12T19:08:04.559Z,101595.40
2022-10-12T19:11:28.733Z,101596.54
2022-10-12T19:14:52.012Z,101596.46
2022-10-12T19:18:15.374Z,101598.65
2022-10-12T19:21:39.854Z,101599.23
2022-10-12T19:25:03.376Z,101600.20
2022-10-12T19:28:26.770Z,101598.35
2022-10-12T19:31:51.634Z,101594.05
2022-10-12T19:35:15.378Z,101597.23
2022-10-12T19:38:39.441Z,101597.29
2022-10-12T19:42:03.456Z,101598.41
2022-10-12T19:45:26.992Z,101600.02
2022-10-12T19:48:51.782Z,101604.48
2022-10-12T19:52:15.467Z,101602.12
2022-10-12T19:55:39.031Z,101598.23
2022-10-12T19:59:02.292Z,101596.06
2022-10-12T20:02:26.048Z,101595.29
2022-10-12T20:05:49.562Z,101594.38
2022-10-12T20:09:12.904Z,101593.23
2022-10-12T20:12:36.811Z,101592.86
2022-10-12T20:16:00.090Z,101588.11
2022-10-12T20:19:23.365Z,101580.02
2022-10-12T20:22:46.546Z,101582.02
2022-10-12T20:26:13.260Z,101574.61
2022-10-12T20:29:36.499Z,101574.14
2022-10-12T20:33:00.289Z,101572.30
2022-10-12T20:36:26.242Z,101572.93
2022-10-12T20:39:52.860Z,101573.71
2022-10-12T20:43:16.403Z,101575.04
2022-10-12T20:46:44.922Z,101580.23
2022-10-12T20:50:09.161Z,101582.09
2022-10-12T20:53:33.596Z,101579.98
2022-10-12T20:56:57.087Z,101584.98
2022-10-12T21:00:21.042Z,101581.67
2022-10-12T21:03:45.597Z,101579.98
2022-10-12T21:07:12.172Z,101578.43
2022-10-12T21:10:39.986Z,101571.88
2022-10-12T21:14:03.426Z,101569.15
2022-10-12T21:17:26.617Z,101568.68
2022-10-12T21:21:05.314Z,101568.72
2022-10-12T21:24:28.859Z,101567.64
2022-10-12T21:27:52.306Z,101562.61
2022-10-12T21:31:16.629Z,101560.16
2022-10-12T21:34:39.874Z,101558.95
2022-10-12T21:38:03.401Z,101562.65
2022-10-12T21:41:28.618Z,101566.08
2022-10-12T21:44:52.166Z,101563.40
2022-10-12T21:48:15.662Z,101564.70
2022-10-12T21:51:39.165Z,101567.93
2022-10-12T21:55:02.876Z,101567.17
2022-10-12T21:58:26.506Z,101565.01
2022-10-12T22:01:50.348Z,101565.69
2022-10-12T22:05:13.791Z,101564.73
2022-10-12T22:08:37.352Z,101566.71
2022-10-12T22:12:02.263Z,101567.35
2022-10-12T22:15:25.669Z,101564.17
2022-10-12T22:18:49.649Z,101562.55
2022-10-12T22:22:13.024Z,101561.80
2022-10-12T22:25:36.219Z,101562.36
2022-10-12T22:28:59.887Z,101563.63
2022-10-12T22:32:23.569Z,101562.69
2022-10-12T22:35:53.562Z,101565.06
2022-10-12T22:39:17.196Z,101560.71
2022-10-12T22:42:40.865Z,101558.30
2022-10-12T22:46:04.601Z,101560.20
2022-10-12T22:49:28.154Z,101556.70
